sensor_id;sensor_type;location;lat;lon;timestamp;P1;durP1;ratioP1;P2;durP2;ratioP2
62071;SDS011;48031;48.542;13.232;2023-10-19T00:00:18;8.13;;;5.47;;
62071;SDS011;48031;48.542;13.232;2023-10-19T00:04:25;8.73;;;4.90;;
62071;SDS011;48031;48.542;13.232;2023-10-19T00:08:29;8.32;;;5.55;;
62071;SDS011;48031;48.542;13.232;2023-10-19T00:12:50;7.55;;;5.10;;
62071;SDS011;48031;48.542;13.232;2023-10-19T00:16:59;6.60;;;4.57;;
62071;SDS011;48031;48.542;13.232;2023-10-19T00:21:02;8.13;;;4.93;;
62071;SDS011;48031;48.542;13.232;2023-10-19T00:25:21;7.80;;;5.45;;
62071;SDS011;48031;48.542;13.232;2023-10-19T00:29:25;11.98;;;6.65;;
62071;SDS011;48031;48.542;13.232;2023-10-19T00:33:43;9.20;;;5.80;;
62071;SDS011;48031;48.542;13.232;2023-10-19T00:37:44;7.20;;;4.55;;
62071;SDS011;48031;48.542;13.232;2023-10-19T00:41:47;7.90;;;4.82;;
62071;SDS011;48031;48.542;13.232;2023-10-19T00:45:50;7.53;;;5.28;;
62071;SDS011;48031;48.542;13.232;2023-10-19T00:49:53;6.88;;;4.70;;
62071;SDS011;48031;48.542;13.232;2023-10-19T00:53:58;6.63;;;4.50;;
62071;SDS011;48031;48.542;13.232;2023-10-19T00:58:14;9.20;;;5.70;;
62071;SDS011;48031;48.542;13.232;2023-10-19T01:02:20;8.73;;;5.47;;
62071;SDS011;48031;48.542;13.232;2023-10-19T01:06:25;7.65;;;4.68;;
62071;SDS011;48031;48.542;13.232;2023-10-19T01:10:33;7.28;;;5.07;;
62071;SDS011;48031;48.542;13.232;2023-10-19T01:14:38;9.10;;;5.88;;
62071;SDS011;48031;48.542;13.232;2023-10-19T01:18:40;7.70;;;5.50;;
62071;SDS011;48031;48.542;13.232;2023-10-19T01:27:13;7.97;;;5.25;;
62071;SDS011;48031;48.542;13.232;2023-10-19T01:31:19;7.38;;;4.85;;
62071;SDS011;48031;48.542;13.232;2023-10-19T01:35:32;7.43;;;5.30;;
62071;SDS011;48031;48.542;13.232;2023-10-19T01:39:53;7.35;;;4.65;;
62071;SDS011;48031;48.542;13.232;2023-10-19T01:43:56;9.65;;;6.22;;
62071;SDS011;48031;48.542;13.232;2023-10-19T01:48:06;7.85;;;5.07;;
62071;SDS011;48031;48.542;13.232;2023-10-19T01:52:09;7.10;;;5.00;;
62071;SDS011;48031;48.542;13.232;2023-10-19T01:56:12;6.45;;;4.20;;
62071;SDS011;48031;48.542;13.232;2023-10-19T02:00:16;7.53;;;5.10;;
62071;SDS011;48031;48.542;13.232;2023-10-19T02:04:25;5.60;;;3.90;;
62071;SDS011;48031;48.542;13.232;2023-10-19T02:08:28;6.18;;;4.25;;
62071;SDS011;48031;48.542;13.232;2023-10-19T02:12:30;5.45;;;3.63;;
62071;SDS011;48031;48.542;13.232;2023-10-19T02:22:17;8.32;;;5.75;;
62071;SDS011;48031;48.542;13.232;2023-10-19T02:26:19;9.25;;;5.57;;
62071;SDS011;48031;48.542;13.232;2023-10-19T02:30:24;7.38;;;4.82;;
62071;SDS011;48031;48.542;13.232;2023-10-19T02:34:26;7.32;;;4.35;;
62071;SDS011;48031;48.542;13.232;2023-10-19T02:38:29;10.30;;;6.13;;
62071;SDS011;48031;48.542;13.232;2023-10-19T02:42:31;11.38;;;6.13;;
62071;SDS011;48031;48.542;13.232;2023-10-19T02:46:34;7.45;;;4.90;;
62071;SDS011;48031;48.542;13.232;2023-10-19T02:50:41;10.85;;;6.05;;
62071;SDS011;48031;48.542;13.232;2023-10-19T02:54:43;9.93;;;5.80;;
62071;SDS011;48031;48.542;13.232;2023-10-19T02:58:46;9.80;;;5.65;;
62071;SDS011;48031;48.542;13.232;2023-10-19T03:02:51;11.50;;;5.57;;
62071;SDS011;48031;48.542;13.232;2023-10-19T03:06:55;9.75;;;5.97;;
62071;SDS011;48031;48.542;13.232;2023-10-19T03:11:00;10.70;;;6.15;;
62071;SDS011;48031;48.542;13.232;2023-10-19T03:15:06;11.43;;;6.70;;
62071;SDS011;48031;48.542;13.232;2023-10-19T03:19:08;12.55;;;6.25;;
62071;SDS011;48031;48.542;13.232;2023-10-19T03:23:11;10.18;;;5.70;;
62071;SDS011;48031;48.542;13.232;2023-10-19T03:27:15;11.25;;;7.18;;
62071;SDS011;48031;48.542;13.232;2023-10-19T03:31:25;9.98;;;6.03;;
62071;SDS011;48031;48.542;13.232;2023-10-19T03:35:28;11.05;;;6.22;;
62071;SDS011;48031;48.542;13.232;2023-10-19T03:39:34;11.32;;;7.07;;
62071;SDS011;48031;48.542;13.232;2023-10-19T03:43:41;10.98;;;6.18;;
62071;SDS011;48031;48.542;13.232;2023-10-19T03:47:43;12.52;;;6.90;;
62071;SDS011;48031;48.542;13.232;2023-10-19T03:51:47;11.05;;;6.50;;
62071;SDS011;48031;48.542;13.232;2023-10-19T03:56:06;13.32;;;7.40;;
62071;SDS011;48031;48.542;13.232;2023-10-19T04:00:12;15.65;;;9.05;;
62071;SDS011;48031;48.542;13.232;2023-10-19T04:04:20;13.68;;;8.35;;
62071;SDS011;48031;48.542;13.232;2023-10-19T04:08:23;13.30;;;7.53;;
62071;SDS011;48031;48.542;13.232;2023-10-19T04:12:29;12.65;;;7.57;;
62071;SDS011;48031;48.542;13.232;2023-10-19T04:16:35;11.82;;;6.43;;
62071;SDS011;48031;48.542;13.232;2023-10-19T04:20:40;12.53;;;7.87;;
62071;SDS011;48031;48.542;13.232;2023-10-19T04:24:52;10.98;;;6.22;;
62071;SDS011;48031;48.542;13.232;2023-10-19T04:28:55;10.60;;;5.85;;
62071;SDS011;48031;48.542;13.232;2023-10-19T04:32:58;10.95;;;6.82;;
62071;SDS011;48031;48.542;13.232;2023-10-19T04:37:03;12.20;;;6.80;;
62071;SDS011;48031;48.542;13.232;2023-10-19T04:41:09;13.75;;;7.63;;
62071;SDS011;48031;48.542;13.232;2023-10-19T04:45:13;11.43;;;6.38;;
62071;SDS011;48031;48.542;13.232;2023-10-19T04:49:17;9.40;;;6.00;;
62071;SDS011;48031;48.542;13.232;2023-10-19T04:53:19;8.82;;;5.82;;
62071;SDS011;48031;48.542;13.232;2023-10-19T04:57:21;12.38;;;7.13;;
62071;SDS011;48031;48.542;13.232;2023-10-19T05:01:23;11.35;;;6.82;;
62071;SDS011;48031;48.542;13.232;2023-10-19T05:05:26;11.35;;;6.70;;
62071;SDS011;48031;48.542;13.232;2023-10-19T05:09:28;12.80;;;7.38;;
62071;SDS011;48031;48.542;13.232;2023-10-19T05:13:31;14.00;;;8.00;;
62071;SDS011;48031;48.542;13.232;2023-10-19T05:17:35;13.02;;;7.03;;
62071;SDS011;48031;48.542;13.232;2023-10-19T05:21:38;14.52;;;7.15;;
62071;SDS011;48031;48.542;13.232;2023-10-19T05:25:41;10.95;;;6.50;;
62071;SDS011;48031;48.542;13.232;2023-10-19T05:29:44;16.13;;;8.00;;
62071;SDS011;48031;48.542;13.232;2023-10-19T05:33:47;14.70;;;8.32;;
62071;SDS011;48031;48.542;13.232;2023-10-19T05:37:50;15.65;;;8.27;;
62071;SDS011;48031;48.542;13.232;2023-10-19T05:41:53;13.60;;;7.80;;
62071;SDS011;48031;48.542;13.232;2023-10-19T05:45:57;17.13;;;9.23;;
62071;SDS011;48031;48.542;13.232;2023-10-19T05:49:59;13.38;;;7.07;;
62071;SDS011;48031;48.542;13.232;2023-10-19T05:54:02;11.88;;;7.18;;
62071;SDS011;48031;48.542;13.232;2023-10-19T05:58:05;16.83;;;8.32;;
62071;SDS011;48031;48.542;13.232;2023-10-19T06:02:08;9.38;;;5.68;;
62071;SDS011;48031;48.542;13.232;2023-10-19T06:06:11;10.60;;;6.40;;
62071;SDS011;48031;48.542;13.232;2023-10-19T06:10:14;10.30;;;5.85;;
62071;SDS011;48031;48.542;13.232;2023-10-19T06:14:19;12.70;;;7.38;;
62071;SDS011;48031;48.542;13.232;2023-10-19T06:18:21;13.70;;;7.57;;
62071;SDS011;48031;48.542;13.232;2023-10-19T06:22:23;12.23;;;6.68;;
62071;SDS011;48031;48.542;13.232;2023-10-19T06:26:25;13.35;;;7.25;;
62071;SDS011;48031;48.542;13.232;2023-10-19T06:30:28;12.45;;;7.03;;
62071;SDS011;48031;48.542;13.232;2023-10-19T06:34:30;12.63;;;6.97;;
62071;SDS011;48031;48.542;13.232;2023-10-19T06:38:33;9.88;;;6.28;;
62071;SDS011;48031;48.542;13.232;2023-10-19T06:42:35;9.57;;;5.43;;
62071;SDS011;48031;48.542;13.232;2023-10-19T06:46:37;9.70;;;5.60;;
62071;SDS011;48031;48.542;13.232;2023-10-19T06:50:41;8.85;;;5.03;;
62071;SDS011;48031;48.542;13.232;2023-10-19T06:54:48;11.40;;;6.10;;
62071;SDS011;48031;48.542;13.232;2023-10-19T06:58:50;13.10;;;7.78;;
62071;SDS011;48031;48.542;13.232;2023-10-19T07:02:54;11.85;;;7.50;;
62071;SDS011;48031;48.542;13.232;2023-10-19T07:06:58;12.50;;;7.72;;
62071;SDS011;48031;48.542;13.232;2023-10-19T07:11:00;12.40;;;7.47;;
62071;SDS011;48031;48.542;13.232;2023-10-19T07:15:03;10.52;;;5.97;;
62071;SDS011;48031;48.542;13.232;2023-10-19T07:19:15;13.90;;;7.93;;
62071;SDS011;48031;48.542;13.232;2023-10-19T07:23:17;10.98;;;6.63;;
62071;SDS011;48031;48.542;13.232;2023-10-19T07:27:28;10.25;;;6.22;;
62071;SDS011;48031;48.542;13.232;2023-10-19T07:31:39;11.40;;;6.60;;
62071;SDS011;48031;48.542;13.232;2023-10-19T07:35:42;11.95;;;6.95;;
62071;SDS011;48031;48.542;13.232;2023-10-19T07:39:47;11.63;;;6.78;;
62071;SDS011;48031;48.542;13.232;2023-10-19T07:43:49;10.70;;;6.57;;
62071;SDS011;48031;48.542;13.232;2023-10-19T07:47:51;11.95;;;7.10;;
62071;SDS011;48031;48.542;13.232;2023-10-19T07:51:53;10.75;;;6.75;;
62071;SDS011;48031;48.542;13.232;2023-10-19T07:55:59;12.73;;;6.80;;
62071;SDS011;48031;48.542;13.232;2023-10-19T08:00:02;14.25;;;7.32;;
62071;SDS011;48031;48.542;13.232;2023-10-19T08:04:06;15.43;;;8.15;;
62071;SDS011;48031;48.542;13.232;2023-10-19T08:08:09;13.88;;;8.60;;
62071;SDS011;48031;48.542;13.232;2023-10-19T08:12:11;17.13;;;9.02;;
62071;SDS011;48031;48.542;13.232;2023-10-19T08:16:15;16.08;;;9.43;;
62071;SDS011;48031;48.542;13.232;2023-10-19T08:20:18;13.82;;;8.25;;
62071;SDS011;48031;48.542;13.232;2023-10-19T08:24:33;13.82;;;8.20;;
62071;SDS011;48031;48.542;13.232;2023-10-19T08:28:36;14.05;;;7.80;;
62071;SDS011;48031;48.542;13.232;2023-10-19T08:32:42;15.93;;;8.45;;
62071;SDS011;48031;48.542;13.232;2023-10-19T08:36:44;13.98;;;7.53;;
62071;SDS011;48031;48.542;13.232;2023-10-19T08:40:47;11.65;;;7.40;;
62071;SDS011;48031;48.542;13.232;2023-10-19T08:44:51;11.52;;;7.32;;
62071;SDS011;48031;48.542;13.232;2023-10-19T08:48:57;10.82;;;6.15;;
62071;SDS011;48031;48.542;13.232;2023-10-19T08:53:01;10.37;;;6.20;;
62071;SDS011;48031;48.542;13.232;2023-10-19T08:57:07;11.50;;;6.63;;
62071;SDS011;48031;48.542;13.232;2023-10-19T09:01:10;8.23;;;5.47;;
62071;SDS011;48031;48.542;13.232;2023-10-19T09:05:14;10.23;;;5.97;;
62071;SDS011;48031;48.542;13.232;2023-10-19T09:09:26;11.93;;;6.70;;
62071;SDS011;48031;48.542;13.232;2023-10-19T09:17:48;12.73;;;7.50;;
62071;SDS011;48031;48.542;13.232;2023-10-19T09:21:51;11.65;;;7.50;;
62071;SDS011;48031;48.542;13.232;2023-10-19T09:25:53;12.98;;;7.93;;
62071;SDS011;48031;48.542;13.232;2023-10-19T09:29:58;10.38;;;7.18;;
62071;SDS011;48031;48.542;13.232;2023-10-19T09:34:02;9.20;;;5.90;;
62071;SDS011;48031;48.542;13.232;2023-10-19T09:38:07;10.75;;;7.00;;
62071;SDS011;48031;48.542;13.232;2023-10-19T09:42:09;12.85;;;8.15;;
62071;SDS011;48031;48.542;13.232;2023-10-19T09:46:14;11.73;;;6.50;;
62071;SDS011;48031;48.542;13.232;2023-10-19T09:50:23;9.55;;;6.43;;
62071;SDS011;48031;48.542;13.232;2023-10-19T09:54:29;9.43;;;6.13;;
62071;SDS011;48031;48.542;13.232;2023-10-19T09:58:46;8.93;;;5.90;;
62071;SDS011;48031;48.542;13.232;2023-10-19T10:02:51;8.50;;;5.85;;
62071;SDS011;48031;48.542;13.232;2023-10-19T10:10:55;9.32;;;5.97;;
62071;SDS011;48031;48.542;13.232;2023-10-19T10:19:00;9.98;;;6.20;;
62071;SDS011;48031;48.542;13.232;2023-10-19T10:23:18;7.63;;;5.30;;
62071;SDS011;48031;48.542;13.232;2023-10-19T10:27:26;9.68;;;5.88;;
62071;SDS011;48031;48.542;13.232;2023-10-19T10:31:29;8.38;;;5.72;;
62071;SDS011;48031;48.542;13.232;2023-10-19T10:39:43;8.48;;;5.38;;
62071;SDS011;48031;48.542;13.232;2023-10-19T10:43:47;5.97;;;4.50;;
62071;SDS011;48031;48.542;13.232;2023-10-19T10:47:51;6.63;;;4.35;;
62071;SDS011;48031;48.542;13.232;2023-10-19T10:51:53;8.60;;;5.40;;
62071;SDS011;48031;48.542;13.232;2023-10-19T10:55:59;7.63;;;5.85;;
62071;SDS011;48031;48.542;13.232;2023-10-19T11:00:09;8.68;;;6.53;;
62071;SDS011;48031;48.542;13.232;2023-10-19T11:04:19;9.07;;;5.83;;
62071;SDS011;48031;48.542;13.232;2023-10-19T11:08:23;9.98;;;6.43;;
62071;SDS011;48031;48.542;13.232;2023-10-19T11:12:26;9.55;;;5.22;;
62071;SDS011;48031;48.542;13.232;2023-10-19T11:16:28;8.32;;;5.18;;
62071;SDS011;48031;48.542;13.232;2023-10-19T11:20:31;8.68;;;5.90;;
62071;SDS011;48031;48.542;13.232;2023-10-19T11:24:34;7.72;;;5.20;;
62071;SDS011;48031;48.542;13.232;2023-10-19T11:28:41;8.60;;;5.55;;
62071;SDS011;48031;48.542;13.232;2023-10-19T11:32:54;7.10;;;4.60;;
62071;SDS011;48031;48.542;13.232;2023-10-19T11:41:04;7.75;;;5.45;;
62071;SDS011;48031;48.542;13.232;2023-10-19T11:45:07;8.00;;;5.20;;
62071;SDS011;48031;48.542;13.232;2023-10-19T11:49:10;8.00;;;5.35;;
62071;SDS011;48031;48.542;13.232;2023-10-19T11:53:12;8.10;;;5.57;;
62071;SDS011;48031;48.542;13.232;2023-10-19T11:57:15;9.10;;;6.22;;
62071;SDS011;48031;48.542;13.232;2023-10-19T12:01:17;8.10;;;5.85;;
62071;SDS011;48031;48.542;13.232;2023-10-19T12:05:19;6.35;;;4.35;;
62071;SDS011;48031;48.542;13.232;2023-10-19T12:09:22;8.38;;;5.82;;
62071;SDS011;48031;48.542;13.232;2023-10-19T12:13:26;10.68;;;5.75;;
62071;SDS011;48031;48.542;13.232;2023-10-19T12:17:29;6.63;;;4.57;;
62071;SDS011;48031;48.542;13.232;2023-10-19T12:21:33;6.43;;;5.00;;
62071;SDS011;48031;48.542;13.232;2023-10-19T12:25:35;7.70;;;5.20;;
62071;SDS011;48031;48.542;13.232;2023-10-19T12:29:57;7.88;;;5.32;;
62071;SDS011;48031;48.542;13.232;2023-10-19T12:34:00;7.75;;;5.30;;
62071;SDS011;48031;48.542;13.232;2023-10-19T12:38:03;8.70;;;6.18;;
62071;SDS011;48031;48.542;13.232;2023-10-19T12:42:07;7.20;;;5.50;;
62071;SDS011;48031;48.542;13.232;2023-10-19T12:46:10;7.72;;;5.28;;
62071;SDS011;48031;48.542;13.232;2023-10-19T12:50:14;7.90;;;6.28;;
62071;SDS011;48031;48.542;13.232;2023-10-19T12:54:17;6.30;;;5.30;;
62071;SDS011;48031;48.542;13.232;2023-10-19T12:58:20;6.82;;;5.40;;
62071;SDS011;48031;48.542;13.232;2023-10-19T13:02:23;6.22;;;4.88;;
62071;SDS011;48031;48.542;13.232;2023-10-19T13:06:26;8.05;;;5.32;;
62071;SDS011;48031;48.542;13.232;2023-10-19T13:10:31;9.02;;;5.50;;
62071;SDS011;48031;48.542;13.232;2023-10-19T13:14:35;7.68;;;5.35;;
62071;SDS011;48031;48.542;13.232;2023-10-19T13:18:37;6.55;;;5.13;;
62071;SDS011;48031;48.542;13.232;2023-10-19T13:22:42;7.07;;;4.70;;
62071;SDS011;48031;48.542;13.232;2023-10-19T13:26:44;7.25;;;5.40;;
62071;SDS011;48031;48.542;13.232;2023-10-19T13:30:49;7.43;;;5.13;;
62071;SDS011;48031;48.542;13.232;2023-10-19T13:34:53;6.60;;;4.93;;
62071;SDS011;48031;48.542;13.232;2023-10-19T13:38:55;6.28;;;4.97;;
62071;SDS011;48031;48.542;13.232;2023-10-19T13:42:57;8.93;;;5.30;;
62071;SDS011;48031;48.542;13.232;2023-10-19T13:47:18;6.22;;;4.57;;
62071;SDS011;48031;48.542;13.232;2023-10-19T13:51:21;8.82;;;4.88;;
62071;SDS011;48031;48.542;13.232;2023-10-19T13:55:24;6.80;;;4.70;;
62071;SDS011;48031;48.542;13.232;2023-10-19T13:59:30;6.97;;;5.00;;
62071;SDS011;48031;48.542;13.232;2023-10-19T14:03:32;7.57;;;5.05;;
62071;SDS011;48031;48.542;13.232;2023-10-19T14:07:34;7.40;;;4.70;;
62071;SDS011;48031;48.542;13.232;2023-10-19T14:11:36;6.97;;;5.00;;
62071;SDS011;48031;48.542;13.232;2023-10-19T14:15:38;5.68;;;4.25;;
62071;SDS011;48031;48.542;13.232;2023-10-19T14:19:41;8.27;;;5.03;;
62071;SDS011;48031;48.542;13.232;2023-10-19T14:23:46;7.18;;;5.22;;
62071;SDS011;48031;48.542;13.232;2023-10-19T14:27:51;7.40;;;5.20;;
62071;SDS011;48031;48.542;13.232;2023-10-19T14:31:56;5.27;;;3.93;;
62071;SDS011;48031;48.542;13.232;2023-10-19T14:35:58;7.30;;;5.10;;
62071;SDS011;48031;48.542;13.232;2023-10-19T14:40:01;8.48;;;5.57;;
62071;SDS011;48031;48.542;13.232;2023-10-19T14:44:05;7.55;;;4.97;;
62071;SDS011;48031;48.542;13.232;2023-10-19T14:48:08;6.55;;;4.45;;
62071;SDS011;48031;48.542;13.232;2023-10-19T14:52:12;8.48;;;5.22;;
62071;SDS011;48031;48.542;13.232;2023-10-19T14:56:14;5.68;;;4.07;;
62071;SDS011;48031;48.542;13.232;2023-10-19T15:00:18;7.25;;;4.85;;
62071;SDS011;48031;48.542;13.232;2023-10-19T15:04:24;9.90;;;4.10;;
62071;SDS011;48031;48.542;13.232;2023-10-19T15:08:29;5.57;;;4.07;;
62071;SDS011;48031;48.542;13.232;2023-10-19T15:12:33;6.00;;;4.25;;
62071;SDS011;48031;48.542;13.232;2023-10-19T15:16:35;6.60;;;4.57;;
62071;SDS011;48031;48.542;13.232;2023-10-19T15:20:37;5.40;;;4.15;;
62071;SDS011;48031;48.542;13.232;2023-10-19T15:24:39;4.82;;;3.75;;
62071;SDS011;48031;48.542;13.232;2023-10-19T15:28:42;5.30;;;4.00;;
62071;SDS011;48031;48.542;13.232;2023-10-19T15:32:45;5.20;;;3.17;;
62071;SDS011;48031;48.542;13.232;2023-10-19T15:36:48;6.57;;;3.90;;
62071;SDS011;48031;48.542;13.232;2023-10-19T15:40:50;5.57;;;3.95;;
62071;SDS011;48031;48.542;13.232;2023-10-19T15:44:52;7.85;;;4.13;;
62071;SDS011;48031;48.542;13.232;2023-10-19T15:48:55;5.90;;;4.22;;
62071;SDS011;48031;48.542;13.232;2023-10-19T15:52:58;5.18;;;3.88;;
62071;SDS011;48031;48.542;13.232;2023-10-19T15:57:00;7.15;;;3.92;;
62071;SDS011;48031;48.542;13.232;2023-10-19T16:01:03;5.28;;;3.03;;
62071;SDS011;48031;48.542;13.232;2023-10-19T16:05:07;4.05;;;3.08;;
62071;SDS011;48031;48.542;13.232;2023-10-19T16:09:10;8.70;;;5.10;;
62071;SDS011;48031;48.542;13.232;2023-10-19T16:13:13;7.20;;;4.57;;
62071;SDS011;48031;48.542;13.232;2023-10-19T16:17:15;7.50;;;4.70;;
62071;SDS011;48031;48.542;13.232;2023-10-19T16:21:18;6.65;;;4.68;;
62071;SDS011;48031;48.542;13.232;2023-10-19T16:25:21;6.53;;;4.47;;
62071;SDS011;48031;48.542;13.232;2023-10-19T16:29:24;7.60;;;4.82;;
62071;SDS011;48031;48.542;13.232;2023-10-19T16:33:27;7.20;;;4.60;;
62071;SDS011;48031;48.542;13.232;2023-10-19T16:37:29;7.78;;;4.50;;
62071;SDS011;48031;48.542;13.232;2023-10-19T16:41:32;6.05;;;3.72;;
62071;SDS011;48031;48.542;13.232;2023-10-19T16:45:34;7.20;;;4.15;;
62071;SDS011;48031;48.542;13.232;2023-10-19T16:49:38;6.25;;;3.88;;
62071;SDS011;48031;48.542;13.232;2023-10-19T16:53:40;7.68;;;4.40;;
62071;SDS011;48031;48.542;13.232;2023-10-19T16:57:42;8.05;;;4.88;;
62071;SDS011;48031;48.542;13.232;2023-10-19T17:01:46;5.22;;;3.88;;
62071;SDS011;48031;48.542;13.232;2023-10-19T17:05:49;6.53;;;4.20;;
62071;SDS011;48031;48.542;13.232;2023-10-19T17:09:53;6.97;;;4.60;;
62071;SDS011;48031;48.542;13.232;2023-10-19T17:13:55;8.15;;;5.00;;
62071;SDS011;48031;48.542;13.232;2023-10-19T17:17:57;10.25;;;6.20;;
62071;SDS011;48031;48.542;13.232;2023-10-19T17:22:00;7.95;;;4.70;;
62071;SDS011;48031;48.542;13.232;2023-10-19T17:26:04;8.85;;;4.72;;
62071;SDS011;48031;48.542;13.232;2023-10-19T17:30:08;7.90;;;5.72;;
62071;SDS011;48031;48.542;13.232;2023-10-19T17:34:11;7.20;;;4.50;;
62071;SDS011;48031;48.542;13.232;2023-10-19T17:38:13;5.65;;;3.95;;
62071;SDS011;48031;48.542;13.232;2023-10-19T17:42:15;6.85;;;3.88;;
62071;SDS011;48031;48.542;13.232;2023-10-19T17:46:18;6.28;;;4.20;;
62071;SDS011;48031;48.542;13.232;2023-10-19T17:50:21;7.18;;;5.28;;
62071;SDS011;48031;48.542;13.232;2023-10-19T17:54:25;8.30;;;4.68;;
62071;SDS011;48031;48.542;13.232;2023-10-19T17:58:27;6.38;;;4.18;;
62071;SDS011;48031;48.542;13.232;2023-10-19T18:02:31;5.68;;;4.10;;
62071;SDS011;48031;48.542;13.232;2023-10-19T18:06:33;6.47;;;4.25;;
62071;SDS011;48031;48.542;13.232;2023-10-19T18:10:36;5.80;;;4.22;;
62071;SDS011;48031;48.542;13.232;2023-10-19T18:14:38;6.63;;;4.07;;
62071;SDS011;48031;48.542;13.232;2023-10-19T18:18:41;6.75;;;4.45;;
62071;SDS011;48031;48.542;13.232;2023-10-19T18:22:50;10.75;;;5.57;;
62071;SDS011;48031;48.542;13.232;2023-10-19T18:26:52;8.25;;;5.13;;
62071;SDS011;48031;48.542;13.232;2023-10-19T18:30:56;7.00;;;4.97;;
62071;SDS011;48031;48.542;13.232;2023-10-19T18:35:01;8.38;;;4.72;;
62071;SDS011;48031;48.542;13.232;2023-10-19T18:39:03;7.65;;;4.97;;
62071;SDS011;48031;48.542;13.232;2023-10-19T18:43:05;7.75;;;4.88;;
62071;SDS011;48031;48.542;13.232;2023-10-19T18:47:07;7.60;;;4.28;;
62071;SDS011;48031;48.542;13.232;2023-10-19T18:51:10;7.50;;;4.95;;
62071;SDS011;48031;48.542;13.232;2023-10-19T18:55:12;10.90;;;6.40;;
62071;SDS011;48031;48.542;13.232;2023-10-19T18:59:19;7.45;;;5.13;;
62071;SDS011;48031;48.542;13.232;2023-10-19T19:03:22;7.78;;;5.03;;
62071;SDS011;48031;48.542;13.232;2023-10-19T19:07:24;7.53;;;5.28;;
62071;SDS011;48031;48.542;13.232;2023-10-19T19:11:26;9.68;;;5.40;;
62071;SDS011;48031;48.542;13.232;2023-10-19T19:15:29;7.68;;;5.03;;
62071;SDS011;48031;48.542;13.232;2023-10-19T19:19:31;9.10;;;6.10;;
62071;SDS011;48031;48.542;13.232;2023-10-19T19:23:37;7.70;;;4.90;;
62071;SDS011;48031;48.542;13.232;2023-10-19T19:27:41;6.30;;;4.10;;
62071;SDS011;48031;48.542;13.232;2023-10-19T19:31:45;7.18;;;4.22;;
62071;SDS011;48031;48.542;13.232;2023-10-19T19:35:48;5.97;;;3.53;;
62071;SDS011;48031;48.542;13.232;2023-10-19T19:39:50;7.90;;;4.90;;
62071;SDS011;48031;48.542;13.232;2023-10-19T19:43:53;12.23;;;6.60;;
62071;SDS011;48031;48.542;13.232;2023-10-19T19:47:55;7.65;;;4.65;;
62071;SDS011;48031;48.542;13.232;2023-10-19T19:51:58;7.50;;;4.95;;
62071;SDS011;48031;48.542;13.232;2023-10-19T19:56:03;7.53;;;4.97;;
62071;SDS011;48031;48.542;13.232;2023-10-19T20:00:07;7.45;;;4.40;;
62071;SDS011;48031;48.542;13.232;2023-10-19T20:04:36;9.55;;;5.10;;
62071;SDS011;48031;48.542;13.232;2023-10-19T20:08:39;6.18;;;4.38;;
62071;SDS011;48031;48.542;13.232;2023-10-19T20:12:41;10.23;;;5.30;;
62071;SDS011;48031;48.542;13.232;2023-10-19T20:16:47;8.63;;;4.82;;
62071;SDS011;48031;48.542;13.232;2023-10-19T20:20:49;7.93;;;4.63;;
62071;SDS011;48031;48.542;13.232;2023-10-19T20:24:51;8.82;;;5.38;;
62071;SDS011;48031;48.542;13.232;2023-10-19T20:28:53;8.10;;;4.82;;
62071;SDS011;48031;48.542;13.232;2023-10-19T20:32:56;7.65;;;5.00;;
62071;SDS011;48031;48.542;13.232;2023-10-19T20:36:59;9.02;;;5.43;;
62071;SDS011;48031;48.542;13.232;2023-10-19T20:41:01;8.05;;;5.03;;
62071;SDS011;48031;48.542;13.232;2023-10-19T20:45:04;9.52;;;5.40;;
62071;SDS011;48031;48.542;13.232;2023-10-19T20:49:06;10.82;;;6.00;;
62071;SDS011;48031;48.542;13.232;2023-10-19T20:53:08;8.60;;;5.25;;
62071;SDS011;48031;48.542;13.232;2023-10-19T20:57:11;13.23;;;7.55;;
62071;SDS011;48031;48.542;13.232;2023-10-19T21:01:13;13.68;;;8.55;;
62071;SDS011;48031;48.542;13.232;2023-10-19T21:05:18;10.43;;;6.13;;
62071;SDS011;48031;48.542;13.232;2023-10-19T21:09:21;13.57;;;6.60;;
62071;SDS011;48031;48.542;13.232;2023-10-19T21:13:23;9.90;;;6.30;;
62071;SDS011;48031;48.542;13.232;2023-10-19T21:17:25;9.63;;;5.43;;
62071;SDS011;48031;48.542;13.232;2023-10-19T21:21:32;9.93;;;5.88;;
62071;SDS011;48031;48.542;13.232;2023-10-19T21:25:37;10.45;;;5.70;;
62071;SDS011;48031;48.542;13.232;2023-10-19T21:29:40;9.10;;;6.30;;
62071;SDS011;48031;48.542;13.232;2023-10-19T21:33:41;13.10;;;7.55;;
62071;SDS011;48031;48.542;13.232;2023-10-19T21:37:44;11.63;;;7.70;;
62071;SDS011;48031;48.542;13.232;2023-10-19T21:41:46;11.65;;;6.95;;
62071;SDS011;48031;48.542;13.232;2023-10-19T21:45:51;11.02;;;6.80;;
62071;SDS011;48031;48.542;13.232;2023-10-19T21:49:54;8.88;;;5.03;;
62071;SDS011;48031;48.542;13.232;2023-10-19T21:53:56;11.10;;;6.13;;
62071;SDS011;48031;48.542;13.232;2023-10-19T21:57:58;13.63;;;7.30;;
62071;SDS011;48031;48.542;13.232;2023-10-19T22:02:01;11.13;;;6.35;;
62071;SDS011;48031;48.542;13.232;2023-10-19T22:06:04;18.30;;;9.65;;
62071;SDS011;48031;48.542;13.232;2023-10-19T22:10:06;18.95;;;10.25;;
62071;SDS011;48031;48.542;13.232;2023-10-19T22:14:09;10.45;;;6.30;;
62071;SDS011;48031;48.542;13.232;2023-10-19T22:18:12;14.65;;;7.53;;
62071;SDS011;48031;48.542;13.232;2023-10-19T22:22:14;11.27;;;6.13;;
62071;SDS011;48031;48.542;13.232;2023-10-19T22:26:16;11.13;;;6.32;;
62071;SDS011;48031;48.542;13.232;2023-10-19T22:30:19;12.20;;;7.95;;
62071;SDS011;48031;48.542;13.232;2023-10-19T22:34:23;14.68;;;9.23;;
62071;SDS011;48031;48.542;13.232;2023-10-19T22:38:25;13.25;;;8.07;;
62071;SDS011;48031;48.542;13.232;2023-10-19T22:42:28;15.88;;;8.43;;
62071;SDS011;48031;48.542;13.232;2023-10-19T22:46:30;12.05;;;6.78;;
62071;SDS011;48031;48.542;13.232;2023-10-19T22:50:32;12.85;;;6.93;;
62071;SDS011;48031;48.542;13.232;2023-10-19T22:54:35;12.38;;;7.30;;
62071;SDS011;48031;48.542;13.232;2023-10-19T22:58:37;12.68;;;7.72;;
62071;SDS011;48031;48.542;13.232;2023-10-19T23:02:40;12.80;;;7.60;;
62071;SDS011;48031;48.542;13.232;2023-10-19T23:06:44;14.48;;;8.23;;
62071;SDS011;48031;48.542;13.232;2023-10-19T23:10:47;14.35;;;7.55;;
62071;SDS011;48031;48.542;13.232;2023-10-19T23:14:49;15.85;;;9.52;;
62071;SDS011;48031;48.542;13.232;2023-10-19T23:18:52;11.00;;;6.28;;
62071;SDS011;48031;48.542;13.232;2023-10-19T23:22:56;10.77;;;6.65;;
62071;SDS011;48031;48.542;13.232;2023-10-19T23:27:01;9.32;;;5.00;;
62071;SDS011;48031;48.542;13.232;2023-10-19T23:31:06;11.65;;;6.28;;
62071;SDS011;48031;48.542;13.232;2023-10-19T23:35:11;14.43;;;6.88;;
62071;SDS011;48031;48.542;13.232;2023-10-19T23:39:14;14.80;;;7.30;;
62071;SDS011;48031;48.542;13.232;2023-10-19T23:43:25;14.55;;;7.57;;
62071;SDS011;48031;48.542;13.232;2023-10-19T23:47:27;17.52;;;9.75;;
62071;SDS011;48031;48.542;13.232;2023-10-19T23:51:29;16.33;;;7.70;;
62071;SDS011;48031;48.542;13.232;2023-10-19T23:55:32;16.42;;;8.73;;
62071;SDS011;48031;48.542;13.232;2023-10-19T23:59:34;16.35;;;9.48;;
